sensor_id;sensor_type;location;lat;lon;timestamp;pressure;altitude;pressure_sealevel;temperature;humidity
44734;BME280;30462;52.446;-1.930;2023-05-22T00:00:18;100858.6133;;;;
44734;BME280;30462;52.446;-1.930;2023-05-22T00:01:17;100861.9492;;;;
44734;BME280;30462;52.446;-1.930;2023-05-22T00:02:18;100855.3555;;;;
44734;BME280;30462;52.446;-1.930;2023-05-22T00:03:18;100859.207;;;;
44734;BME280;30462;52.446;-1.930;2023-05-22T00:04:18;100857.457;;;;
44734;BME280;30462;52.446;-1.930;2023-05-22T00:05:18;100858.8867;;;;
44734;BME280;30462;52.446;-1.930;2023-05-22T00:06:18;100859.8086;;;;
44734;BME280;30462;52.446;-1.930;2023-05-22T00:07:18;100859.0313;;;;
44734;BME280;30462;52.446;-1.930;2023-05-22T00:08:18;100854.2539;;;;
44734;BME280;30462;52.446;-1.930;2023-05-22T00:09:18;100855.9648;;;;
44734;BME280;30462;52.446;-1.930;2023-05-22T00:10:18;100853.7617;;;;
44734;BME280;30462;52.446;-1.930;2023-05-22T00:11:18;100854.4258;;;;
44734;BME280;30462;52.446;-1.930;2023-05-22T00:12:18;100853.6484;;;;
44734;BME280;30462;52.446;-1.930;2023-05-22T00:13:17;100852.3984;;;;
44734;BME280;30462;52.446;-1.930;2023-05-22T00:14:18;100851.6875;;;;
44734;BME280;30462;52.446;-1.930;2023-05-22T00:15:18;100852.0625;;;;
44734;BME280;30462;52.446;-1.930;2023-05-22T00:16:18;100854.1445;;;;
44734;BME280;30462;52.446;-1.930;2023-05-22T00:17:18;100849.5313;;;;
44734;BME280;30462;52.446;-1.930;2023-05-22T00:18:18;100853.3008;;;;
44734;BME280;30462;52.446;-1.930;2023-05-22T00:19:18;100851.6055;;;;
44734;BME280;30462;52.446;-1.930;2023-05-22T00:20:18;100852.1484;;;;
44734;BME280;30462;52.446;-1.930;2023-05-22T00:21:18;100851.0977;;;;
44734;BME280;30462;52.446;-1.930;2023-05-22T00:22:18;100850.7539;;;;
44734;BME280;30462;52.446;-1.930;2023-05-22T00:23:18;100849.0625;;;;
44734;BME280;30462;52.446;-1.930;2023-05-22T00:24:18;100850.3203;;;;
44734;BME280;30462;52.446;-1.930;2023-05-22T00:25:18;100850.2656;;;;
44734;BME280;30462;52.446;-1.930;2023-05-22T00:26:19;100850.8516;;;;
44734;BME280;30462;52.446;-1.930;2023-05-22T00:27:17;100848.4531;;;;
44734;BME280;30462;52.446;-1.930;2023-05-22T00:28:18;100848.6484;;;;
44734;BME280;30462;52.446;-1.930;2023-05-22T00:29:17;100849.1484;;;;
44734;BME280;30462;52.446;-1.930;2023-05-22T00:30:17;100849.375;;;;
44734;BME280;30462;52.446;-1.930;2023-05-22T00:31:18;100847.4961;;;;
44734;BME280;30462;52.446;-1.930;2023-05-22T00:32:18;100847.3945;;;;
44734;BME280;30462;52.446;-1.930;2023-05-22T00:33:18;100846.9727;;;;
44734;BME280;30462;52.446;-1.930;2023-05-22T00:34:18;100850.082;;;;
44734;BME280;30462;52.446;-1.930;2023-05-22T00:35:18;100847.3945;;;;
44734;BME280;30462;52.446;-1.930;2023-05-22T00:36:18;100846.625;;;;
44734;BME280;30462;52.446;-1.930;2023-05-22T00:37:17;100848.7695;;;;
44734;BME280;30462;52.446;-1.930;2023-05-22T00:39:17;100843.2305;;;;
44734;BME280;30462;52.446;-1.930;2023-05-22T00:40:19;100843.2852;;;;
44734;BME280;30462;52.446;-1.930;2023-05-22T00:41:18;100839.1602;;;;
44734;BME280;30462;52.446;-1.930;2023-05-22T00:42:18;100842.7148;;;;
44734;BME280;30462;52.446;-1.930;2023-05-22T00:43:17;100843.3867;;;;
44734;BME280;30462;52.446;-1.930;2023-05-22T00:44:18;100839.0469;;;;
44734;BME280;30462;52.446;-1.930;2023-05-22T00:45:18;100840.3477;;;;
44734;BME280;30462;52.446;-1.930;2023-05-22T00:46:18;100835.5898;;;;
44734;BME280;30462;52.446;-1.930;2023-05-22T00:47:17;100835.9648;;;;
44734;BME280;30462;52.446;-1.930;2023-05-22T00:48:18;100836.0078;;;;
44734;BME280;30462;52.446;-1.930;2023-05-22T00:49:17;100835.6172;;;;
44734;BME280;30462;52.446;-1.930;2023-05-22T00:50:18;100835.9258;;;;
44734;BME280;30462;52.446;-1.930;2023-05-22T00:51:18;100834.0625;;;;
44734;BME280;30462;52.446;-1.930;2023-05-22T00:52:18;100835.2852;;;;
44734;BME280;30462;52.446;-1.930;2023-05-22T00:53:18;100834.957;;;;
44734;BME280;30462;52.446;-1.930;2023-05-22T00:54:18;100835.7617;;;;
44734;BME280;30462;52.446;-1.930;2023-05-22T00:55:18;100836.3633;;;;
44734;BME280;30462;52.446;-1.930;2023-05-22T00:56:18;100831.4219;;;;
44734;BME280;30462;52.446;-1.930;2023-05-22T00:57:18;100835.4961;;;;
44734;BME280;30462;52.446;-1.930;2023-05-22T00:58:18;100835.3281;;;;
44734;BME280;30462;52.446;-1.930;2023-05-22T00:59:17;100833.7422;;;;
44734;BME280;30462;52.446;-1.930;2023-05-22T01:00:18;100836.6914;;;;
44734;BME280;30462;52.446;-1.930;2023-05-22T01:01:18;100838.2383;;;;
44734;BME280;30462;52.446;-1.930;2023-05-22T01:02:18;100835.8984;;;;
44734;BME280;30462;52.446;-1.930;2023-05-22T01:03:18;100835.7266;;;;
44734;BME280;30462;52.446;-1.930;2023-05-22T01:04:18;100836.0586;;;;
44734;BME280;30462;52.446;-1.930;2023-05-22T01:05:18;100837.1641;;;;
44734;BME280;30462;52.446;-1.930;2023-05-22T01:06:18;100838.8594;;;;
44734;BME280;30462;52.446;-1.930;2023-05-22T01:07:18;100836.4844;;;;
44734;BME280;30462;52.446;-1.930;2023-05-22T01:08:18;100837.2031;;;;
44734;BME280;30462;52.446;-1.930;2023-05-22T01:09:18;100835.8867;;;;
44734;BME280;30462;52.446;-1.930;2023-05-22T01:10:18;100835.9453;;;;
44734;BME280;30462;52.446;-1.930;2023-05-22T01:11:21;100837.8633;;;;
44734;BME280;30462;52.446;-1.930;2023-05-22T01:12:19;100836.3672;;;;
44734;BME280;30462;52.446;-1.930;2023-05-22T01:13:20;100834.6016;;;;
44734;BME280;30462;52.446;-1.930;2023-05-22T01:14:30;100834.8359;;;;
44734;BME280;30462;52.446;-1.930;2023-05-22T01:15:20;100833.7305;;;;
44734;BME280;30462;52.446;-1.930;2023-05-22T01:16:21;100832.8359;;;;
44734;BME280;30462;52.446;-1.930;2023-05-22T01:17:20;100830.4102;;;;
44734;BME280;30462;52.446;-1.930;2023-05-22T01:18:19;100832.9766;;;;
44734;BME280;30462;52.446;-1.930;2023-05-22T01:20:20;100831.2266;;;;
44734;BME280;30462;52.446;-1.930;2023-05-22T01:21:20;100830.5117;;;;
44734;BME280;30462;52.446;-1.930;2023-05-22T01:22:22;100830.9766;;;;
44734;BME280;30462;52.446;-1.930;2023-05-22T01:25:20;100826.7188;;;;
44734;BME280;30462;52.446;-1.930;2023-05-22T01:31:18;100827.8164;;;;
44734;BME280;30462;52.446;-1.930;2023-05-22T01:32:19;100825.1133;;;;
44734;BME280;30462;52.446;-1.930;2023-05-22T01:33:17;100818.25;;;;
44734;BME280;30462;52.446;-1.930;2023-05-22T01:34:18;100820.5859;;;;
44734;BME280;30462;52.446;-1.930;2023-05-22T01:35:17;100821.5234;;;;
44734;BME280;30462;52.446;-1.930;2023-05-22T01:36:19;100820.5;;;;
44734;BME280;30462;52.446;-1.930;2023-05-22T01:37:18;100820.2852;;;;
44734;BME280;30462;52.446;-1.930;2023-05-22T01:38:18;100820.3438;;;;
44734;BME280;30462;52.446;-1.930;2023-05-22T01:39:18;100820.7969;;;;
44734;BME280;30462;52.446;-1.930;2023-05-22T01:40:17;100819.9023;;;;
44734;BME280;30462;52.446;-1.930;2023-05-22T01:41:18;100820.7344;;;;
44734;BME280;30462;52.446;-1.930;2023-05-22T01:42:18;100821.7813;;;;
44734;BME280;30462;52.446;-1.930;2023-05-22T01:43:18;100821.8516;;;;
44734;BME280;30462;52.446;-1.930;2023-05-22T01:44:18;100819.7578;;;;
44734;BME280;30462;52.446;-1.930;2023-05-22T01:45:18;100819.2734;;;;
44734;BME280;30462;52.446;-1.930;2023-05-22T01:46:17;100818.1289;;;;
44734;BME280;30462;52.446;-1.930;2023-05-22T01:47:18;100821.7188;;;;
44734;BME280;30462;52.446;-1.930;2023-05-22T01:48:19;100823.582;;;;
44734;BME280;30462;52.446;-1.930;2023-05-22T01:49:17;100819.2188;;;;
44734;BME280;30462;52.446;-1.930;2023-05-22T01:50:18;100818.2344;;;;
44734;BME280;30462;52.446;-1.930;2023-05-22T01:51:28;100815.543;;;;
44734;BME280;30462;52.446;-1.930;2023-05-22T01:52:19;100816.7969;;;;
44734;BME280;30462;52.446;-1.930;2023-05-22T01:53:18;100815.4922;;;;
44734;BME280;30462;52.446;-1.930;2023-05-22T01:54:21;100815.6445;;;;
44734;BME280;30462;52.446;-1.930;2023-05-22T01:55:21;100816.1914;;;;
44734;BME280;30462;52.446;-1.930;2023-05-22T01:56:19;100817.5664;;;;
44734;BME280;30462;52.446;-1.930;2023-05-22T01:57:18;100814.7813;;;;
44734;BME280;30462;52.446;-1.930;2023-05-22T01:58:20;100814.5781;;;;
44734;BME280;30462;52.446;-1.930;2023-05-22T01:59:22;100817.4375;;;;
44734;BME280;30462;52.446;-1.930;2023-05-22T02:00:18;100815.6211;;;;
44734;BME280;30462;52.446;-1.930;2023-05-22T02:01:18;100820.5508;;;;
44734;BME280;30462;52.446;-1.930;2023-05-22T02:02:18;100820.7617;;;;
44734;BME280;30462;52.446;-1.930;2023-05-22T02:03:20;100822.4531;;;;
44734;BME280;30462;52.446;-1.930;2023-05-22T02:04:19;100820;;;;
44734;BME280;30462;52.446;-1.930;2023-05-22T02:05:18;100821.6445;;;;
44734;BME280;30462;52.446;-1.930;2023-05-22T02:06:18;100823.6602;;;;
44734;BME280;30462;52.446;-1.930;2023-05-22T02:07:21;100821.582;;;;
44734;BME280;30462;52.446;-1.930;2023-05-22T02:08:17;100822.0664;;;;
44734;BME280;30462;52.446;-1.930;2023-05-22T02:09:18;100819.6055;;;;
44734;BME280;30462;52.446;-1.930;2023-05-22T02:10:17;100819.2188;;;;
44734;BME280;30462;52.446;-1.930;2023-05-22T02:11:18;100817.5117;;;;
44734;BME280;30462;52.446;-1.930;2023-05-22T02:12:18;100816.9492;;;;
44734;BME280;30462;52.446;-1.930;2023-05-22T02:13:18;100816.1602;;;;
44734;BME280;30462;52.446;-1.930;2023-05-22T02:14:17;100817.6563;;;;
44734;BME280;30462;52.446;-1.930;2023-05-22T02:15:18;100818.2969;;;;
44734;BME280;30462;52.446;-1.930;2023-05-22T02:16:17;100816.0547;;;;
44734;BME280;30462;52.446;-1.930;2023-05-22T02:17:17;100815.1953;;;;
44734;BME280;30462;52.446;-1.930;2023-05-22T02:18:18;100813.5586;;;;
44734;BME280;30462;52.446;-1.930;2023-05-22T02:19:18;100810.9375;;;;
44734;BME280;30462;52.446;-1.930;2023-05-22T02:20:18;100814.3203;;;;
44734;BME280;30462;52.446;-1.930;2023-05-22T02:21:18;100814.7539;;;;
44734;BME280;30462;52.446;-1.930;2023-05-22T02:22:18;100813.3945;;;;
44734;BME280;30462;52.446;-1.930;2023-05-22T02:23:18;100815.0391;;;;
44734;BME280;30462;52.446;-1.930;2023-05-22T02:24:18;100812.9961;;;;
44734;BME280;30462;52.446;-1.930;2023-05-22T02:25:18;100813.8789;;;;
44734;BME280;30462;52.446;-1.930;2023-05-22T02:26:18;100809.1445;;;;
44734;BME280;30462;52.446;-1.930;2023-05-22T02:27:18;100810.4063;;;;
44734;BME280;30462;52.446;-1.930;2023-05-22T02:28:17;100808.8164;;;;
44734;BME280;30462;52.446;-1.930;2023-05-22T02:29:18;100807.6016;;;;
44734;BME280;30462;52.446;-1.930;2023-05-22T02:30:18;100808.4688;;;;
44734;BME280;30462;52.446;-1.930;2023-05-22T02:31:18;100805.0664;;;;
44734;BME280;30462;52.446;-1.930;2023-05-22T02:32:17;100806.707;;;;
44734;BME280;30462;52.446;-1.930;2023-05-22T02:33:17;100804.1914;;;;
44734;BME280;30462;52.446;-1.930;2023-05-22T02:34:18;100805.2227;;;;
44734;BME280;30462;52.446;-1.930;2023-05-22T02:35:18;100801.3984;;;;
44734;BME280;30462;52.446;-1.930;2023-05-22T02:36:18;100802.4258;;;;
44734;BME280;30462;52.446;-1.930;2023-05-22T02:37:18;100801.0195;;;;
44734;BME280;30462;52.446;-1.930;2023-05-22T02:38:17;100798.1094;;;;
44734;BME280;30462;52.446;-1.930;2023-05-22T02:39:17;100801.5547;;;;
44734;BME280;30462;52.446;-1.930;2023-05-22T02:40:18;100802.1602;;;;
44734;BME280;30462;52.446;-1.930;2023-05-22T02:41:18;100801.2852;;;;
44734;BME280;30462;52.446;-1.930;2023-05-22T02:42:18;100804.4297;;;;
44734;BME280;30462;52.446;-1.930;2023-05-22T02:43:17;100804.4297;;;;
44734;BME280;30462;52.446;-1.930;2023-05-22T02:44:18;100803.6133;;;;
44734;BME280;30462;52.446;-1.930;2023-05-22T02:45:18;100802.7734;;;;
44734;BME280;30462;52.446;-1.930;2023-05-22T02:46:18;100806.0938;;;;
44734;BME280;30462;52.446;-1.930;2023-05-22T02:47:18;100803.8398;;;;
44734;BME280;30462;52.446;-1.930;2023-05-22T02:48:17;100808.9688;;;;
44734;BME280;30462;52.446;-1.930;2023-05-22T02:49:19;100807.5313;;;;
44734;BME280;30462;52.446;-1.930;2023-05-22T02:50:18;100809.5938;;;;
44734;BME280;30462;52.446;-1.930;2023-05-22T02:51:18;100806.8086;;;;
44734;BME280;30462;52.446;-1.930;2023-05-22T02:52:17;100808.0664;;;;
44734;BME280;30462;52.446;-1.930;2023-05-22T02:53:17;100808.2305;;;;
44734;BME280;30462;52.446;-1.930;2023-05-22T02:54:18;100807.6836;;;;
44734;BME280;30462;52.446;-1.930;2023-05-22T02:55:18;100805.4141;;;;
44734;BME280;30462;52.446;-1.930;2023-05-22T02:56:18;100805.6797;;;;
44734;BME280;30462;52.446;-1.930;2023-05-22T02:57:18;100805.2461;;;;
44734;BME280;30462;52.446;-1.930;2023-05-22T02:58:18;100803.4531;;;;
44734;BME280;30462;52.446;-1.930;2023-05-22T02:59:18;100801.7148;;;;
44734;BME280;30462;52.446;-1.930;2023-05-22T03:00:18;100799.7383;;;;
44734;BME280;30462;52.446;-1.930;2023-05-22T03:01:17;100798.5391;;;;
44734;BME280;30462;52.446;-1.930;2023-05-22T03:02:18;100799.7344;;;;
44734;BME280;30462;52.446;-1.930;2023-05-22T03:03:18;100801.4805;;;;
44734;BME280;30462;52.446;-1.930;2023-05-22T03:04:18;100798.8477;;;;
44734;BME280;30462;52.446;-1.930;2023-05-22T03:05:17;100802.207;;;;
44734;BME280;30462;52.446;-1.930;2023-05-22T03:06:17;100802.5664;;;;
44734;BME280;30462;52.446;-1.930;2023-05-22T03:07:18;100806.6133;;;;
44734;BME280;30462;52.446;-1.930;2023-05-22T03:08:18;100804.2109;;;;
44734;BME280;30462;52.446;-1.930;2023-05-22T03:09:18;100804.1484;;;;
44734;BME280;30462;52.446;-1.930;2023-05-22T03:10:17;100805.0195;;;;
44734;BME280;30462;52.446;-1.930;2023-05-22T03:11:18;100807.1563;;;;
44734;BME280;30462;52.446;-1.930;2023-05-22T03:12:18;100803.8281;;;;
44734;BME280;30462;52.446;-1.930;2023-05-22T03:13:18;100807.0938;;;;
44734;BME280;30462;52.446;-1.930;2023-05-22T03:14:18;100806.3867;;;;
44734;BME280;30462;52.446;-1.930;2023-05-22T03:15:18;100801.125;;;;
44734;BME280;30462;52.446;-1.930;2023-05-22T03:16:17;100798.4375;;;;
44734;BME280;30462;52.446;-1.930;2023-05-22T03:17:18;100803.2031;;;;
44734;BME280;30462;52.446;-1.930;2023-05-22T03:18:18;100802.0898;;;;
44734;BME280;30462;52.446;-1.930;2023-05-22T03:19:18;100799.1211;;;;
44734;BME280;30462;52.446;-1.930;2023-05-22T03:20:18;100795.2813;;;;
44734;BME280;30462;52.446;-1.930;2023-05-22T03:21:18;100796.3672;;;;
44734;BME280;30462;52.446;-1.930;2023-05-22T03:22:18;100793.7422;;;;
44734;BME280;30462;52.446;-1.930;2023-05-22T03:23:18;100795.9922;;;;
44734;BME280;30462;52.446;-1.930;2023-05-22T03:24:17;100792.6406;;;;
44734;BME280;30462;52.446;-1.930;2023-05-22T03:25:18;100795.6172;;;;
44734;BME280;30462;52.446;-1.930;2023-05-22T03:26:18;100792.0977;;;;
44734;BME280;30462;52.446;-1.930;2023-05-22T03:27:18;100792.043;;;;
44734;BME280;30462;52.446;-1.930;2023-05-22T03:28:18;100792.918;;;;
44734;BME280;30462;52.446;-1.930;2023-05-22T03:29:17;100789.9609;;;;
44734;BME280;30462;52.446;-1.930;2023-05-22T03:30:17;100792.0352;;;;
44734;BME280;30462;52.446;-1.930;2023-05-22T03:31:18;100791.7031;;;;
44734;BME280;30462;52.446;-1.930;2023-05-22T03:32:18;100790.332;;;;
44734;BME280;30462;52.446;-1.930;2023-05-22T03:33:18;100793.0117;;;;
44734;BME280;30462;52.446;-1.930;2023-05-22T03:34:18;100794.0742;;;;
44734;BME280;30462;52.446;-1.930;2023-05-22T03:35:17;100793.5742;;;;
44734;BME280;30462;52.446;-1.930;2023-05-22T03:36:18;100794.9219;;;;
44734;BME280;30462;52.446;-1.930;2023-05-22T03:37:18;100791.3594;;;;
44734;BME280;30462;52.446;-1.930;2023-05-22T03:38:18;100791.6367;;;;
44734;BME280;30462;52.446;-1.930;2023-05-22T03:39:18;100790.9805;;;;
44734;BME280;30462;52.446;-1.930;2023-05-22T03:40:18;100790.4766;;;;
44734;BME280;30462;52.446;-1.930;2023-05-22T03:41:17;100790.0859;;;;
44734;BME280;30462;52.446;-1.930;2023-05-22T03:42:18;100789.9805;;;;
44734;BME280;30462;52.446;-1.930;2023-05-22T03:43:18;100791.6133;;;;
44734;BME280;30462;52.446;-1.930;2023-05-22T03:44:18;100789.8359;;;;
44734;BME280;30462;52.446;-1.930;2023-05-22T03:45:17;100791.043;;;;
44734;BME280;30462;52.446;-1.930;2023-05-22T03:46:17;100794.2734;;;;
44734;BME280;30462;52.446;-1.930;2023-05-22T03:47:18;100795.1172;;;;
44734;BME280;30462;52.446;-1.930;2023-05-22T03:48:19;100799.0898;;;;
44734;BME280;30462;52.446;-1.930;2023-05-22T03:49:17;100798.0703;;;;
44734;BME280;30462;52.446;-1.930;2023-05-22T03:50:18;100801.5547;;;;
44734;BME280;30462;52.446;-1.930;2023-05-22T03:51:18;100799.582;;;;
44734;BME280;30462;52.446;-1.930;2023-05-22T03:52:18;100801.4375;;;;
44734;BME280;30462;52.446;-1.930;2023-05-22T03:53:18;100798;;;;
44734;BME280;30462;52.446;-1.930;2023-05-22T03:54:17;100798.0156;;;;
44734;BME280;30462;52.446;-1.930;2023-05-22T03:55:17;100800.8984;;;;
44734;BME280;30462;52.446;-1.930;2023-05-22T03:56:18;100796.0508;;;;
44734;BME280;30462;52.446;-1.930;2023-05-22T03:57:18;100794.1445;;;;
44734;BME280;30462;52.446;-1.930;2023-05-22T03:58:18;100794.1836;;;;
44734;BME280;30462;52.446;-1.930;2023-05-22T03:59:18;100795.4453;;;;
44734;BME280;30462;52.446;-1.930;2023-05-22T04:00:18;100793.8398;;;;
44734;BME280;30462;52.446;-1.930;2023-05-22T04:01:18;100790.8438;;;;
44734;BME280;30462;52.446;-1.930;2023-05-22T04:02:18;100792.2891;;;;
44734;BME280;30462;52.446;-1.930;2023-05-22T04:03:17;100791.793;;;;
44734;BME280;30462;52.446;-1.930;2023-05-22T04:04:18;100795.9492;;;;
44734;BME280;30462;52.446;-1.930;2023-05-22T04:05:18;100796.5234;;;;
44734;BME280;30462;52.446;-1.930;2023-05-22T04:06:18;100797.4609;;;;
44734;BME280;30462;52.446;-1.930;2023-05-22T04:07:18;100800.2969;;;;
44734;BME280;30462;52.446;-1.930;2023-05-22T04:08:18;100798.1992;;;;
44734;BME280;30462;52.446;-1.930;2023-05-22T04:09:18;100796.8516;;;;
44734;BME280;30462;52.446;-1.930;2023-05-22T04:10:18;100798.2813;;;;
44734;BME280;30462;52.446;-1.930;2023-05-22T04:11:18;100797.7852;;;;
44734;BME280;30462;52.446;-1.930;2023-05-22T04:12:17;100800.0391;;;;
44734;BME280;30462;52.446;-1.930;2023-05-22T04:13:17;100799.2422;;;;
44734;BME280;30462;52.446;-1.930;2023-05-22T04:14:17;100798.8203;;;;
44734;BME280;30462;52.446;-1.930;2023-05-22T04:15:18;100802.0586;;;;
44734;BME280;30462;52.446;-1.930;2023-05-22T04:16:18;100803.8164;;;;
44734;BME280;30462;52.446;-1.930;2023-05-22T04:17:18;100804.8516;;;;
44734;BME280;30462;52.446;-1.930;2023-05-22T04:18:18;100807.3047;;;;
44734;BME280;30462;52.446;-1.930;2023-05-22T04:19:17;100812.6992;;;;
44734;BME280;30462;52.446;-1.930;2023-05-22T04:20:18;100814.1914;;;;
44734;BME280;30462;52.446;-1.930;2023-05-22T04:21:18;100813.5898;;;;
44734;BME280;30462;52.446;-1.930;2023-05-22T04:22:18;100814.8633;;;;
44734;BME280;30462;52.446;-1.930;2023-05-22T04:23:18;100813.3555;;;;
44734;BME280;30462;52.446;-1.930;2023-05-22T04:24:18;100814.3906;;;;
44734;BME280;30462;52.446;-1.930;2023-05-22T04:25:17;100812.7383;;;;
44734;BME280;30462;52.446;-1.930;2023-05-22T04:26:17;100811.6172;;;;
44734;BME280;30462;52.446;-1.930;2023-05-22T04:27:18;100809.3906;;;;
44734;BME280;30462;52.446;-1.930;2023-05-22T04:28:18;100807.3086;;;;
44734;BME280;30462;52.446;-1.930;2023-05-22T04:29:18;100807.4844;;;;
44734;BME280;30462;52.446;-1.930;2023-05-22T04:30:18;100806.9727;;;;
44734;BME280;30462;52.446;-1.930;2023-05-22T04:31:18;100799.4648;;;;
44734;BME280;30462;52.446;-1.930;2023-05-22T04:32:18;100802.5039;;;;
44734;BME280;30462;52.446;-1.930;2023-05-22T04:33:18;100805.0234;;;;
44734;BME280;30462;52.446;-1.930;2023-05-22T04:34:18;100799.1602;;;;
44734;BME280;30462;52.446;-1.930;2023-05-22T04:35:17;100803.7227;;;;
44734;BME280;30462;52.446;-1.930;2023-05-22T04:36:18;100806.3633;;;;
44734;BME280;30462;52.446;-1.930;2023-05-22T04:37:18;100808.1016;;;;
44734;BME280;30462;52.446;-1.930;2023-05-22T04:38:18;100807.0938;;;;
44734;BME280;30462;52.446;-1.930;2023-05-22T04:39:18;100805.9414;;;;
44734;BME280;30462;52.446;-1.930;2023-05-22T04:40:18;100805.0039;;;;
44734;BME280;30462;52.446;-1.930;2023-05-22T04:41:18;100802.1797;;;;
44734;BME280;30462;52.446;-1.930;2023-05-22T04:42:18;100803.7969;;;;
44734;BME280;30462;52.446;-1.930;2023-05-22T04:43:18;100803.1211;;;;
44734;BME280;30462;52.446;-1.930;2023-05-22T04:44:17;100804.5586;;;;
44734;BME280;30462;52.446;-1.930;2023-05-22T04:45:17;100803.3672;;;;
44734;BME280;30462;52.446;-1.930;2023-05-22T04:46:18;100800.1406;;;;
44734;BME280;30462;52.446;-1.930;2023-05-22T04:47:18;100798.5117;;;;
44734;BME280;30462;52.446;-1.930;2023-05-22T04:48:18;100798.793;;;;
44734;BME280;30462;52.446;-1.930;2023-05-22T04:49:18;100801.5273;;;;
44734;BME280;30462;52.446;-1.930;2023-05-22T04:50:18;100801.4297;;;;
44734;BME280;30462;52.446;-1.930;2023-05-22T04:51:18;100802.8672;;;;
44734;BME280;30462;52.446;-1.930;2023-05-22T04:52:18;100803.2148;;;;
44734;BME280;30462;52.446;-1.930;2023-05-22T04:53:18;100803.0664;;;;
44734;BME280;30462;52.446;-1.930;2023-05-22T04:54:18;100803.582;;;;
44734;BME280;30462;52.446;-1.930;2023-05-22T04:55:18;100804.0195;;;;
44734;BME280;30462;52.446;-1.930;2023-05-22T04:56:18;100805.7891;;;;
44734;BME280;30462;52.446;-1.930;2023-05-22T04:57:17;100808.8125;;;;
44734;BME280;30462;52.446;-1.930;2023-05-22T04:58:18;100805.6445;;;;
44734;BME280;30462;52.446;-1.930;2023-05-22T04:59:18;100806.1094;;;;
44734;BME280;30462;52.446;-1.930;2023-05-22T05:00:18;100806.7695;;;;
44734;BME280;30462;52.446;-1.930;2023-05-22T05:01:18;100805.3359;;;;
44734;BME280;30462;52.446;-1.930;2023-05-22T05:02:18;100806.5938;;;;
44734;BME280;30462;52.446;-1.930;2023-05-22T05:03:18;100805.9805;;;;
44734;BME280;30462;52.446;-1.930;2023-05-22T05:04:18;100808.8242;;;;
44734;BME280;30462;52.446;-1.930;2023-05-22T05:05:18;100808.0898;;;;
44734;BME280;30462;52.446;-1.930;2023-05-22T05:06:18;100808.8594;;;;
44734;BME280;30462;52.446;-1.930;2023-05-22T05:07:17;100812.9805;;;;
44734;BME280;30462;52.446;-1.930;2023-05-22T05:08:18;100812.3438;;;;
44734;BME280;30462;52.446;-1.930;2023-05-22T05:09:18;100814.7227;;;;
44734;BME280;30462;52.446;-1.930;2023-05-22T05:10:18;100815.2266;;;;
44734;BME280;30462;52.446;-1.930;2023-05-22T05:11:18;100811.7734;;;;
44734;BME280;30462;52.446;-1.930;2023-05-22T05:12:18;100815.8594;;;;
44734;BME280;30462;52.446;-1.930;2023-05-22T05:13:18;100814.707;;;;
44734;BME280;30462;52.446;-1.930;2023-05-22T05:14:18;100816.8164;;;;
44734;BME280;30462;52.446;-1.930;2023-05-22T05:15:18;100816.8906;;;;
44734;BME280;30462;52.446;-1.930;2023-05-22T05:16:18;100818.7266;;;;
44734;BME280;30462;52.446;-1.930;2023-05-22T05:17:18;100816.957;;;;
44734;BME280;30462;52.446;-1.930;2023-05-22T05:18:18;100818.1797;;;;
44734;BME280;30462;52.446;-1.930;2023-05-22T05:19:19;100820.8906;;;;
44734;BME280;30462;52.446;-1.930;2023-05-22T05:20:18;100818.2734;;;;
44734;BME280;30462;52.446;-1.930;2023-05-22T05:21:17;100818.4688;;;;
44734;BME280;30462;52.446;-1.930;2023-05-22T05:22:17;100823.7266;;;;
44734;BME280;30462;52.446;-1.930;2023-05-22T05:23:18;100823.3164;;;;
44734;BME280;30462;52.446;-1.930;2023-05-22T05:24:18;100819.8984;;;;
44734;BME280;30462;52.446;-1.930;2023-05-22T05:25:18;100822.9414;;;;
44734;BME280;30462;52.446;-1.930;2023-05-22T05:26:18;100823.168;;;;
44734;BME280;30462;52.446;-1.930;2023-05-22T05:27:18;100821.8008;;;;
44734;BME280;30462;52.446;-1.930;2023-05-22T05:28:18;100816.8633;;;;
44734;BME280;30462;52.446;-1.930;2023-05-22T05:29:18;100822.0234;;;;
44734;BME280;30462;52.446;-1.930;2023-05-22T05:30:18;100822.6875;;;;
44734;BME280;30462;52.446;-1.930;2023-05-22T05:31:18;100819.7734;;;;
44734;BME280;30462;52.446;-1.930;2023-05-22T05:32:18;100819.9766;;;;
44734;BME280;30462;52.446;-1.930;2023-05-22T05:33:18;100821.3672;;;;
44734;BME280;30462;52.446;-1.930;2023-05-22T05:34:18;100825.7031;;;;
44734;BME280;30462;52.446;-1.930;2023-05-22T05:35:17;100820.7852;;;;
44734;BME280;30462;52.446;-1.930;2023-05-22T05:36:18;100820.1484;;;;
44734;BME280;30462;52.446;-1.930;2023-05-22T05:37:18;100819.332;;;;
44734;BME280;30462;52.446;-1.930;2023-05-22T05:38:18;100818.1445;;;;
44734;BME280;30462;52.446;-1.930;2023-05-22T05:39:18;100816.1719;;;;
44734;BME280;30462;52.446;-1.930;2023-05-22T05:40:18;100819.5664;;;;
44734;BME280;30462;52.446;-1.930;2023-05-22T05:41:18;100816.4531;;;;
44734;BME280;30462;52.446;-1.930;2023-05-22T05:42:18;100817.3633;;;;
44734;BME280;30462;52.446;-1.930;2023-05-22T05:43:17;100814.793;;;;
44734;BME280;30462;52.446;-1.930;2023-05-22T05:44:18;100815.1523;;;;
44734;BME280;30462;52.446;-1.930;2023-05-22T05:45:17;100816.4453;;;;
44734;BME280;30462;52.446;-1.930;2023-05-22T05:46:17;100816.4688;;;;
44734;BME280;30462;52.446;-1.930;2023-05-22T05:47:18;100817.1563;;;;
44734;BME280;30462;52.446;-1.930;2023-05-22T05:48:18;100819.4258;;;;
44734;BME280;30462;52.446;-1.930;2023-05-22T05:49:18;100820.9336;;;;
44734;BME280;30462;52.446;-1.930;2023-05-22T05:50:18;100821.2109;;;;
44734;BME280;30462;52.446;-1.930;2023-05-22T05:51:18;100817.8438;;;;
44734;BME280;30462;52.446;-1.930;2023-05-22T05:52:18;100819.4375;;;;
44734;BME280;30462;52.446;-1.930;2023-05-22T05:53:18;100821.8594;;;;
44734;BME280;30462;52.446;-1.930;2023-05-22T05:54:18;100816.9883;;;;